Аэропорт: Петропавловск. Петропавловск

ICAO: UACP

METAR:
2022-06-26 11:00:00
UACP 261100Z 30006MPS 270V340 9999 SCT046CB 20/10 Q1000 NOSIG RMK QFE738/0984
METAR:
2022-06-26 08:02:00
TAF UACP 260802Z 2609/2618 26007MPS 9999 BKN030 TEMPO 2609/2615 30007G12MPS 3100 -SHRA BKN015CB